createdAt,value
2018-12-29T00:01:39.063Z,62.07
2018-12-29T00:04:07.274Z,66.73
2018-12-29T00:06:35.498Z,60.40
2018-12-29T00:09:05.285Z,64.27
2018-12-29T00:11:33.515Z,66.93
2018-12-29T00:14:01.819Z,64.13
2018-12-29T00:16:30.760Z,67.00
2018-12-29T00:18:59.045Z,63.80
2018-12-29T00:21:27.893Z,67.33
2018-12-29T00:23:56.073Z,60.87
2018-12-29T00:26:24.564Z,62.57
2018-12-29T00:28:52.883Z,61.93
2018-12-29T00:31:21.187Z,71.70
2018-12-29T00:33:49.498Z,61.00
2018-12-29T00:36:18.411Z,63.83
2018-12-29T00:38:46.700Z,67.63
2018-12-29T00:41:15.529Z,76.20
2018-12-29T00:43:43.771Z,64.97
2018-12-29T00:46:12.161Z,71.27
2018-12-29T00:48:40.462Z,65.40
2018-12-29T00:51:08.688Z,70.43
2018-12-29T00:53:36.978Z,72.10
2018-12-29T00:56:05.252Z,67.00
2018-12-29T00:58:34.085Z,65.57
2018-12-29T01:01:02.358Z,65.70
2018-12-29T01:03:30.548Z,67.83
2018-12-29T01:05:58.756Z,72.37
2018-12-29T01:08:27.693Z,72.57
2018-12-29T01:10:56.011Z,77.23
2018-12-29T01:13:24.537Z,71.57
2018-12-29T01:15:53.062Z,65.00
2018-12-29T01:18:21.741Z,68.27
2018-12-29T01:20:49.942Z,67.77
2018-12-29T01:23:18.138Z,61.17
2018-12-29T01:25:46.484Z,66.33
2018-12-29T01:28:15.661Z,59.07
2018-12-29T01:30:43.906Z,67.27
2018-12-29T01:33:12.134Z,69.27
2018-12-29T01:35:41.621Z,68.03
2018-12-29T01:38:10.495Z,70.17
2018-12-29T01:40:38.772Z,66.93
2018-12-29T01:43:07.061Z,62.87
2018-12-29T01:45:37.022Z,67.13
2018-12-29T01:48:06.054Z,68.43
2018-12-29T01:50:34.334Z,54.03
2018-12-29T01:53:03.222Z,59.57
2018-12-29T01:55:32.133Z,59.40
2018-12-29T01:58:01.838Z,57.13
2018-12-29T02:00:30.523Z,63.27
2018-12-29T02:02:58.783Z,60.30
2018-12-29T02:05:27.094Z,54.93
2018-12-29T02:07:55.357Z,57.47
2018-12-29T02:10:23.562Z,57.43
2018-12-29T02:12:51.814Z,57.33
2018-12-29T02:15:24.740Z,57.70
2018-12-29T02:17:50.190Z,56.03
2018-12-29T02:20:18.397Z,59.43
2018-12-29T02:22:46.617Z,56.20
2018-12-29T02:25:14.905Z,60.33
2018-12-29T02:27:43.445Z,59.63
2018-12-29T02:30:12.689Z,59.07
2018-12-29T02:32:41.264Z,64.23
2018-12-29T02:35:09.514Z,64.43
2018-12-29T02:37:37.744Z,61.67
2018-12-29T02:40:06.050Z,68.77
2018-12-29T02:42:34.265Z,63.57
2018-12-29T02:45:02.554Z,65.07
2018-12-29T02:47:30.721Z,64.13
2018-12-29T02:49:59.817Z,55.93
2018-12-29T02:52:28.093Z,69.23
2018-12-29T02:54:56.805Z,66.30
2018-12-29T02:57:25.085Z,60.83
2018-12-29T02:59:54.004Z,61.60
2018-12-29T03:02:22.241Z,62.47
2018-12-29T03:04:51.158Z,64.97
2018-12-29T03:07:19.352Z,59.80
2018-12-29T03:09:47.634Z,55.07
2018-12-29T03:12:16.306Z,69.17
2018-12-29T03:14:44.469Z,64.07
2018-12-29T03:17:12.689Z,64.07
2018-12-29T03:19:40.922Z,54.07
2018-12-29T03:22:09.160Z,63.07
2018-12-29T03:24:37.380Z,59.13
2018-12-29T03:27:05.984Z,63.30
2018-12-29T03:29:34.579Z,57.60
2018-12-29T03:32:02.770Z,64.77
2018-12-29T03:34:32.501Z,56.07
2018-12-29T03:37:01.704Z,51.60
2018-12-29T03:39:29.957Z,52.83
2018-12-29T03:41:58.224Z,56.67
2018-12-29T03:44:26.761Z,57.10
2018-12-29T03:46:55.016Z,60.23
2018-12-29T03:49:23.285Z,53.53
2018-12-29T03:51:52.601Z,54.73
2018-12-29T03:54:21.081Z,56.70
2018-12-29T03:56:49.298Z,50.83
2018-12-29T03:59:17.791Z,54.47
2018-12-29T04:04:49.487Z,45.60
2018-12-29T04:07:17.638Z,51.57
2018-12-29T04:09:46.390Z,45.93
2018-12-29T04:12:18.773Z,51.63
2018-12-29T04:14:47.102Z,55.33
2018-12-29T04:17:15.283Z,51.33
2018-12-29T04:19:43.402Z,49.43
2018-12-29T04:22:11.563Z,52.00
2018-12-29T04:24:40.300Z,50.03
2018-12-29T04:27:08.559Z,54.40
2018-12-29T04:29:37.335Z,46.60
2018-12-29T04:32:05.494Z,51.97
2018-12-29T04:34:33.786Z,49.53
2018-12-29T04:37:02.045Z,47.37
2018-12-29T04:39:30.310Z,53.87
2018-12-29T04:41:58.516Z,45.90
2018-12-29T04:44:26.707Z,53.70
2018-12-29T04:46:54.890Z,48.60
2018-12-29T04:49:23.089Z,51.07
2018-12-29T04:51:51.285Z,48.93
2018-12-29T04:54:19.541Z,43.53
2018-12-29T04:56:47.825Z,48.73
2018-12-29T04:59:16.041Z,47.43
2018-12-29T05:01:44.331Z,50.97
2018-12-29T05:04:13.149Z,50.50
2018-12-29T05:06:41.417Z,53.77
2018-12-29T05:09:09.624Z,51.27
2018-12-29T05:11:38.545Z,52.40
2018-12-29T05:14:06.749Z,50.83
2018-12-29T05:16:35.038Z,54.13
2018-12-29T05:19:03.273Z,56.50
2018-12-29T05:21:32.105Z,54.57
2018-12-29T05:24:01.172Z,45.80
2018-12-29T05:26:29.409Z,49.33
2018-12-29T05:28:57.630Z,50.73
2018-12-29T05:31:25.853Z,49.60
2018-12-29T05:33:54.086Z,54.00
2018-12-29T05:36:22.317Z,54.10
2018-12-29T05:38:50.569Z,58.20
2018-12-29T05:41:18.762Z,53.80
2018-12-29T05:43:47.009Z,57.93
2018-12-29T05:46:20.344Z,55.67
2018-12-29T05:48:43.505Z,58.40
2018-12-29T05:51:11.725Z,52.87
2018-12-29T05:53:39.942Z,59.87
2018-12-29T05:56:08.146Z,57.47
2018-12-29T05:58:36.374Z,54.40
2018-12-29T06:01:04.621Z,50.20
2018-12-29T06:03:32.845Z,63.77
2018-12-29T06:06:02.016Z,59.47
2018-12-29T06:08:30.907Z,60.53
2018-12-29T06:10:59.146Z,58.63
2018-12-29T06:13:27.398Z,59.83
2018-12-29T06:15:55.649Z,58.87
2018-12-29T06:18:23.899Z,57.47
2018-12-29T06:20:52.166Z,58.57
2018-12-29T06:23:20.389Z,57.73
2018-12-29T06:25:48.606Z,60.63
2018-12-29T06:28:17.187Z,63.40
2018-12-29T06:30:45.398Z,59.33
2018-12-29T06:33:13.619Z,59.07
2018-12-29T06:35:41.805Z,61.30
2018-12-29T06:38:10.049Z,59.63
2018-12-29T06:40:38.292Z,58.13
2018-12-29T06:43:06.613Z,56.80
2018-12-29T06:45:35.497Z,57.97
2018-12-29T06:48:03.721Z,56.63
2018-12-29T06:50:31.957Z,59.27
2018-12-29T06:53:00.197Z,60.73
2018-12-29T06:55:28.471Z,53.57
2018-12-29T06:57:56.737Z,56.20
2018-12-29T07:00:25.664Z,54.47
2018-12-29T07:02:53.882Z,58.63
2018-12-29T07:05:22.894Z,58.73
2018-12-29T07:07:51.189Z,57.57
2018-12-29T07:10:19.421Z,52.63
2018-12-29T07:12:47.712Z,56.83
2018-12-29T07:15:16.275Z,50.87
2018-12-29T07:17:44.498Z,56.13
2018-12-29T07:20:12.756Z,53.33
2018-12-29T07:22:40.985Z,46.83
2018-12-29T07:25:09.245Z,49.37
2018-12-29T07:27:37.504Z,52.97
2018-12-29T07:30:06.544Z,55.67
2018-12-29T07:32:34.765Z,46.60
2018-12-29T07:35:03.001Z,49.70
2018-12-29T07:37:31.259Z,48.03
2018-12-29T07:39:59.505Z,53.73
2018-12-29T07:42:27.746Z,52.53
2018-12-29T07:44:55.958Z,54.17
2018-12-29T07:47:24.190Z,61.57
2018-12-29T07:49:52.438Z,52.80
2018-12-29T07:52:20.710Z,60.73
2018-12-29T07:54:48.946Z,52.93
2018-12-29T07:57:17.270Z,52.77
2018-12-29T07:59:45.493Z,55.53
2018-12-29T08:02:14.698Z,55.73
2018-12-29T08:04:42.909Z,55.53
2018-12-29T08:07:11.143Z,53.77
2018-12-29T08:09:40.233Z,50.13
2018-12-29T08:12:08.447Z,56.37
2018-12-29T08:14:36.655Z,51.03
2018-12-29T08:17:04.828Z,52.57
2018-12-29T08:19:33.098Z,52.53
2018-12-29T08:22:01.321Z,58.77
2018-12-29T08:24:30.163Z,57.43
2018-12-29T08:26:58.407Z,51.87
2018-12-29T08:29:27.127Z,56.70
2018-12-29T08:31:55.414Z,52.90
2018-12-29T08:34:23.645Z,53.93
2018-12-29T08:36:51.885Z,55.93
2018-12-29T08:39:20.152Z,57.00
2018-12-29T08:41:48.440Z,50.60
2018-12-29T08:44:16.946Z,51.77
2018-12-29T08:46:45.176Z,55.30
2018-12-29T08:49:13.408Z,58.47
2018-12-29T08:51:41.627Z,54.37
2018-12-29T08:54:10.037Z,58.33
2018-12-29T08:56:38.206Z,55.00
2018-12-29T08:59:06.395Z,55.80
2018-12-29T09:01:34.796Z,57.67
2018-12-29T09:04:02.981Z,52.27
2018-12-29T09:06:31.250Z,48.43
2018-12-29T09:08:59.501Z,51.03
2018-12-29T09:11:27.763Z,49.47
2018-12-29T09:13:56.010Z,54.93
2018-12-29T09:16:24.250Z,52.93
2018-12-29T09:18:52.517Z,47.03
2018-12-29T09:21:20.765Z,53.33
2018-12-29T09:23:49.022Z,55.97
2018-12-29T09:26:17.267Z,51.33
2018-12-29T09:28:45.477Z,51.77
2018-12-29T09:31:13.792Z,49.00
2018-12-29T09:33:41.952Z,57.67
2018-12-29T09:36:10.158Z,56.80
2018-12-29T09:38:38.464Z,52.23
2018-12-29T09:41:06.691Z,49.97
2018-12-29T09:43:34.905Z,51.97
2018-12-29T09:46:03.202Z,49.60
2018-12-29T09:48:32.397Z,52.10
2018-12-29T09:51:00.625Z,48.00
2018-12-29T09:53:28.893Z,48.50
2018-12-29T09:55:57.131Z,49.87
2018-12-29T09:58:25.382Z,49.53
2018-12-29T10:00:53.624Z,49.63
2018-12-29T10:03:21.950Z,54.63
2018-12-29T10:05:50.266Z,45.70
2018-12-29T10:08:19.377Z,43.67
2018-12-29T10:10:47.615Z,47.70
2018-12-29T10:13:15.842Z,42.30
2018-12-29T10:15:44.081Z,50.30
2018-12-29T10:18:12.398Z,45.97
2018-12-29T10:20:40.678Z,47.17
2018-12-29T10:23:08.942Z,53.13
2018-12-29T10:25:37.491Z,45.97
2018-12-29T10:28:06.314Z,53.47
2018-12-29T10:30:34.583Z,45.37
2018-12-29T10:33:02.856Z,46.80
2018-12-29T10:35:31.183Z,50.27
2018-12-29T10:37:59.341Z,47.03
2018-12-29T10:40:27.575Z,48.20
2018-12-29T10:42:55.777Z,49.27
2018-12-29T10:45:24.022Z,46.97
2018-12-29T10:47:52.258Z,41.13
2018-12-29T10:50:20.621Z,44.30
2018-12-29T10:52:48.890Z,37.87
2018-12-29T10:55:17.079Z,43.13
2018-12-29T10:57:45.253Z,39.67
2018-12-29T11:00:13.802Z,44.23
2018-12-29T11:02:42.026Z,36.10
2018-12-29T11:05:10.271Z,41.27
2018-12-29T11:07:38.594Z,41.47
2018-12-29T11:10:06.800Z,39.10
2018-12-29T11:12:35.008Z,39.20
2018-12-29T11:15:03.231Z,42.00
2018-12-29T11:17:31.445Z,39.70
2018-12-29T11:20:00.680Z,48.60
2018-12-29T11:22:29.624Z,43.87
2018-12-29T11:24:57.877Z,37.27
2018-12-29T11:27:26.218Z,41.97
2018-12-29T11:29:54.522Z,37.17
2018-12-29T11:32:22.733Z,44.60
2018-12-29T11:34:51.183Z,39.37
2018-12-29T11:37:20.053Z,37.70
2018-12-29T11:39:48.328Z,38.77
2018-12-29T11:42:16.537Z,39.17
2018-12-29T11:44:44.777Z,41.17
2018-12-29T11:47:13.042Z,37.53
2018-12-29T11:49:41.251Z,37.07
2018-12-29T11:52:10.096Z,39.70
2018-12-29T11:54:39.180Z,37.10
2018-12-29T11:57:07.952Z,37.50
2018-12-29T11:59:36.187Z,41.50
2018-12-29T12:02:04.432Z,37.70
2018-12-29T12:04:32.679Z,37.87
2018-12-29T12:07:00.933Z,42.47
2018-12-29T12:09:30.329Z,38.03
2018-12-29T12:11:57.430Z,39.17
2018-12-29T12:14:25.686Z,37.50
2018-12-29T12:16:54.019Z,35.97
2018-12-29T12:19:22.469Z,37.17
2018-12-29T12:21:50.703Z,35.17
2018-12-29T12:24:18.916Z,36.93
2018-12-29T12:26:47.126Z,36.63
2018-12-29T12:29:15.337Z,36.93
2018-12-29T12:31:43.578Z,36.97
2018-12-29T12:34:11.821Z,35.20
2018-12-29T12:36:40.101Z,36.43
2018-12-29T12:39:08.413Z,36.87
2018-12-29T12:41:36.641Z,38.80
2018-12-29T12:44:04.837Z,37.60
2018-12-29T12:46:33.038Z,35.97
2018-12-29T12:49:01.288Z,37.07
2018-12-29T12:51:30.298Z,37.13
2018-12-29T12:53:58.563Z,38.77
2018-12-29T12:56:26.813Z,38.97
2018-12-29T12:58:55.071Z,35.40
2018-12-29T13:01:23.327Z,41.10
2018-12-29T13:03:51.569Z,41.90
2018-12-29T13:06:19.802Z,42.10
2018-12-29T13:08:48.058Z,39.83
2018-12-29T13:11:16.937Z,41.13
2018-12-29T13:13:45.213Z,37.03
2018-12-29T13:16:13.465Z,37.87
2018-12-29T13:18:41.758Z,39.00
2018-12-29T13:21:10.060Z,41.20
2018-12-29T13:23:39.936Z,40.97
2018-12-29T13:26:08.181Z,37.37
2018-12-29T13:28:36.633Z,39.77
2018-12-29T13:31:05.185Z,37.93
2018-12-29T13:33:33.393Z,36.60
2018-12-29T13:36:01.682Z,47.63
2018-12-29T13:38:30.420Z,40.03
2018-12-29T13:40:58.697Z,37.30
2018-12-29T13:43:26.926Z,38.27
2018-12-29T13:45:55.161Z,42.47
2018-12-29T13:48:23.650Z,44.77
2018-12-29T13:50:52.869Z,42.73
2018-12-29T13:53:22.590Z,42.13
2018-12-29T13:55:50.818Z,42.77
2018-12-29T13:58:19.101Z,40.63
2018-12-29T14:00:47.361Z,41.83
2018-12-29T14:03:15.544Z,43.13
2018-12-29T14:05:43.797Z,42.57
2018-12-29T14:08:12.063Z,40.80
2018-12-29T14:10:40.270Z,39.10
2018-12-29T14:13:08.494Z,44.73
2018-12-29T14:15:36.717Z,46.13
2018-12-29T14:18:04.971Z,42.53
2018-12-29T14:20:33.264Z,44.37
2018-12-29T14:23:01.554Z,48.80
2018-12-29T14:25:29.789Z,47.57
2018-12-29T14:27:58.119Z,46.67
2018-12-29T14:30:26.385Z,51.73
2018-12-29T14:32:54.728Z,56.67
2018-12-29T14:35:23.002Z,56.03
2018-12-29T14:37:51.256Z,46.70
2018-12-29T14:40:19.484Z,53.07
2018-12-29T14:42:47.830Z,50.43
2018-12-29T14:45:16.103Z,52.37
2018-12-29T14:47:44.334Z,50.63
2018-12-29T14:50:12.609Z,48.77
2018-12-29T14:52:40.853Z,54.50
2018-12-29T14:55:09.142Z,56.47
2018-12-29T14:57:37.415Z,54.87
2018-12-29T15:00:05.745Z,53.53
2018-12-29T15:02:34.340Z,51.90
2018-12-29T15:05:03.261Z,51.97
2018-12-29T15:07:31.542Z,54.67
2018-12-29T15:09:59.777Z,54.90
2018-12-29T15:12:28.009Z,54.53
2018-12-29T15:14:56.250Z,53.90
2018-12-29T15:17:24.486Z,54.90
2018-12-29T15:19:52.750Z,54.07
2018-12-29T15:22:21.737Z,55.20
2018-12-29T15:24:49.956Z,48.77
2018-12-29T15:27:18.248Z,55.37
2018-12-29T15:29:46.503Z,49.17
2018-12-29T15:32:14.740Z,52.70
2018-12-29T15:34:43.005Z,51.10
2018-12-29T15:37:11.238Z,46.67
2018-12-29T15:39:39.520Z,44.77
2018-12-29T15:42:07.757Z,48.97
2018-12-29T15:44:35.999Z,52.10
2018-12-29T15:47:04.236Z,47.23
2018-12-29T15:49:32.493Z,49.53
2018-12-29T15:52:00.717Z,50.40
2018-12-29T15:54:29.037Z,52.00
2018-12-29T15:56:57.260Z,50.67
2018-12-29T15:59:25.502Z,48.53
2018-12-29T16:01:53.844Z,44.57
2018-12-29T16:04:22.018Z,51.53
2018-12-29T16:06:50.857Z,45.30
2018-12-29T16:09:19.101Z,48.37
2018-12-29T16:11:48.509Z,47.63
2018-12-29T16:14:16.740Z,53.87
2018-12-29T16:16:45.976Z,49.60
2018-12-29T16:19:14.198Z,54.17
2018-12-29T16:21:42.431Z,50.87
2018-12-29T16:24:10.684Z,51.90
2018-12-29T16:26:38.881Z,54.50
2018-12-29T16:29:07.951Z,53.73
2018-12-29T16:31:36.179Z,50.33
2018-12-29T16:34:04.463Z,47.20
2018-12-29T16:36:32.653Z,54.83
2018-12-29T16:39:00.827Z,45.43
2018-12-29T16:41:29.059Z,47.87
2018-12-29T16:43:57.293Z,39.90
2018-12-29T16:46:25.583Z,52.53
2018-12-29T16:48:53.801Z,46.63
2018-12-29T16:51:22.183Z,46.93
2018-12-29T16:53:50.417Z,47.90
2018-12-29T16:56:19.290Z,45.10
2018-12-29T16:58:47.506Z,44.67
2018-12-29T17:01:15.773Z,44.20
2018-12-29T17:03:43.998Z,43.37
2018-12-29T17:06:12.297Z,40.30
2018-12-29T17:08:40.558Z,47.67
2018-12-29T17:11:08.801Z,47.07
2018-12-29T17:13:37.091Z,47.47
2018-12-29T17:16:05.653Z,42.23
2018-12-29T17:18:33.876Z,42.80
2018-12-29T17:21:02.212Z,41.70
2018-12-29T17:23:30.445Z,40.17
2018-12-29T17:25:58.668Z,43.20
2018-12-29T17:28:27.888Z,45.67
2018-12-29T17:30:57.644Z,41.30
2018-12-29T17:33:25.859Z,40.27
2018-12-29T17:35:54.097Z,37.47
2018-12-29T17:38:22.321Z,41.83
2018-12-29T17:40:50.632Z,41.13
2018-12-29T17:43:18.876Z,44.30
2018-12-29T17:45:47.161Z,40.90
2018-12-29T17:48:15.488Z,34.97
2018-12-29T17:50:43.743Z,44.50
2018-12-29T17:53:12.048Z,42.33
2018-12-29T17:55:40.285Z,36.47
2018-12-29T17:58:08.520Z,38.27
2018-12-29T18:00:36.801Z,37.43
2018-12-29T18:03:05.006Z,36.80
2018-12-29T18:05:33.613Z,33.23
2018-12-29T18:08:01.922Z,38.27
2018-12-29T18:10:30.191Z,37.37
2018-12-29T18:12:58.443Z,40.00
2018-12-29T18:15:26.631Z,41.87
2018-12-29T18:17:54.908Z,46.33
2018-12-29T18:20:23.155Z,42.63
2018-12-29T18:22:51.421Z,46.67
2018-12-29T18:25:20.031Z,51.43
2018-12-29T18:27:48.401Z,53.13
2018-12-29T18:30:17.492Z,58.97
2018-12-29T18:32:45.731Z,54.83
2018-12-29T18:35:13.951Z,57.43
2018-12-29T18:37:42.158Z,53.30
2018-12-29T18:40:10.447Z,47.53
2018-12-29T18:42:38.640Z,48.73
2018-12-29T18:45:06.955Z,46.67
2018-12-29T18:47:35.196Z,48.03
2018-12-29T18:50:05.496Z,45.70
2018-12-29T18:52:33.718Z,48.27
2018-12-29T18:55:02.127Z,47.57
2018-12-29T18:57:30.338Z,42.80
2018-12-29T18:59:58.596Z,42.67
2018-12-29T19:02:26.849Z,37.90
2018-12-29T19:04:55.295Z,41.47
2018-12-29T19:07:23.973Z,41.73
2018-12-29T19:09:52.193Z,39.20
2018-12-29T19:12:21.066Z,43.20
2018-12-29T19:14:49.326Z,37.13
2018-12-29T19:17:17.661Z,39.23
2018-12-29T19:19:46.481Z,35.83
2018-12-29T19:22:14.165Z,43.87
2018-12-29T19:24:42.599Z,38.80
2018-12-29T19:27:11.577Z,44.07
2018-12-29T19:29:39.796Z,40.40
2018-12-29T19:32:08.042Z,40.73
2018-12-29T19:34:36.333Z,41.40
2018-12-29T19:37:04.554Z,43.47
2018-12-29T19:39:32.782Z,39.20
2018-12-29T19:42:01.053Z,39.53
2018-12-29T19:44:29.307Z,45.93
2018-12-29T19:46:57.525Z,45.33
2018-12-29T19:49:26.177Z,41.67
2018-12-29T19:51:54.361Z,43.77
2018-12-29T19:54:23.288Z,45.67
2018-12-29T19:56:52.461Z,42.63
2018-12-29T19:59:20.902Z,43.00
2018-12-29T20:01:49.127Z,45.50
2018-12-29T20:04:17.814Z,50.97
2018-12-29T20:06:46.100Z,44.87
2018-12-29T20:09:15.182Z,46.63
2018-12-29T20:11:44.006Z,48.77
2018-12-29T20:14:12.245Z,45.13
2018-12-29T20:16:40.465Z,46.00
2018-12-29T20:19:08.730Z,40.17
2018-12-29T20:21:37.880Z,48.07
2018-12-29T20:24:07.096Z,47.23
2018-12-29T20:26:34.402Z,47.37
2018-12-29T20:29:02.648Z,44.83
2018-12-29T20:31:30.924Z,47.53
2018-12-29T20:33:59.315Z,49.07
2018-12-29T20:36:27.660Z,47.63
2018-12-29T20:38:56.634Z,50.03
2018-12-29T20:41:25.137Z,43.50
2018-12-29T20:43:53.396Z,49.93
2018-12-29T20:46:21.587Z,49.90
2018-12-29T20:48:50.807Z,52.37
2018-12-29T20:51:19.165Z,48.40
2018-12-29T20:53:47.837Z,47.93
2018-12-29T20:56:16.081Z,42.17
2018-12-29T20:58:44.400Z,45.93
2018-12-29T21:01:12.887Z,43.87
2018-12-29T21:03:41.609Z,46.10
2018-12-29T21:06:09.432Z,54.30
2018-12-29T21:08:37.731Z,42.80
2018-12-29T21:11:05.934Z,42.57
2018-12-29T21:13:34.777Z,41.23
2018-12-29T21:16:03.010Z,45.93
2018-12-29T21:18:31.246Z,47.10
2018-12-29T21:21:00.540Z,40.10
2018-12-29T21:23:28.772Z,44.50
2018-12-29T21:25:56.952Z,44.30
2018-12-29T21:28:26.187Z,40.47
2018-12-29T21:30:56.038Z,44.73
2018-12-29T21:33:22.670Z,39.13
2018-12-29T21:35:50.893Z,40.00
2018-12-29T21:38:19.107Z,41.23
2018-12-29T21:40:47.382Z,39.57
2018-12-29T21:43:15.605Z,40.43
2018-12-29T21:45:44.081Z,47.23
2018-12-29T21:48:12.319Z,40.47
2018-12-29T21:50:40.541Z,33.77
2018-12-29T21:53:08.781Z,42.70
2018-12-29T21:55:36.988Z,38.10
2018-12-29T21:58:05.951Z,37.70
2018-12-29T22:00:34.209Z,36.27
2018-12-29T22:03:02.454Z,35.87
2018-12-29T22:05:30.722Z,36.67
2018-12-29T22:07:59.898Z,31.77
2018-12-29T22:10:29.719Z,31.87
2018-12-29T22:12:58.000Z,34.63
2018-12-29T22:15:27.189Z,30.43
2018-12-29T22:17:55.426Z,31.03
2018-12-29T22:20:23.658Z,29.80
2018-12-29T22:22:52.018Z,32.40
2018-12-29T22:25:20.557Z,26.50
2018-12-29T22:27:48.777Z,22.43
2018-12-29T22:30:17.116Z,23.60
2018-12-29T22:32:45.636Z,22.70
2018-12-29T22:35:14.840Z,25.83
2018-12-29T22:37:43.493Z,25.80
2018-12-29T22:40:11.790Z,18.17
2018-12-29T22:42:40.036Z,19.37
2018-12-29T22:45:08.229Z,15.23
2018-12-29T22:47:36.460Z,14.77
2018-12-29T22:50:04.984Z,14.70
2018-12-29T22:52:33.784Z,13.47
2018-12-29T22:55:02.097Z,14.00
2018-12-29T22:57:30.343Z,13.77
2018-12-29T22:59:58.635Z,14.23
2018-12-29T23:02:27.558Z,13.17
2018-12-29T23:04:56.297Z,13.83
2018-12-29T23:07:24.513Z,13.23
2018-12-29T23:09:52.939Z,12.87
2018-12-29T23:12:21.136Z,13.07
2018-12-29T23:14:50.246Z,12.03
2018-12-29T23:17:18.494Z,13.53
2018-12-29T23:19:46.734Z,14.13
2018-12-29T23:22:15.049Z,14.30
2018-12-29T23:24:43.254Z,14.07
2018-12-29T23:27:11.526Z,14.07
2018-12-29T23:29:39.762Z,13.93
2018-12-29T23:32:08.084Z,14.83
2018-12-29T23:34:36.989Z,13.60
2018-12-29T23:37:05.212Z,13.90
2018-12-29T23:39:34.510Z,14.07
2018-12-29T23:42:03.324Z,13.83
2018-12-29T23:44:31.558Z,13.70
2018-12-29T23:46:59.900Z,13.37
2018-12-29T23:49:28.213Z,15.27
2018-12-29T23:51:56.430Z,15.20
2018-12-29T23:54:24.668Z,14.80
2018-12-29T23:56:52.852Z,14.80
2018-12-29T23:59:21.069Z,14.77
